Time;durP1;ratioP1;P1;durP2;ratioP2;P2;SDS_P1;SDS_P2;PMS_P1;PMS_P2;Temp;Humidity;BMP_temperature;BMP_pressure;BME280_temperature;BME280_humidity;BME280_pressure;Samples;Min_cycle;Max_cycle;Signal;HPM_P1;HPM_P2
2023/06/30 00:01:48;;;;;;;10.98;7.78;;;;;;;18.41;100.00;98134.25;4176324;28;20255;-72
2023/06/30 00:03:49;;;;;;;11.70;8.20;;;;;;;18.38;100.00;98149.13;4176553;28;20029;-72
2023/06/30 00:05:49;;;;;;;10.65;7.47;;;;;;;18.33;100.00;98144.06;4179780;28;20048;-72
2023/06/30 00:07:49;;;;;;;9.35;7.10;;;;;;;18.25;100.00;98137.84;4179181;28;20072;-73
2023/06/30 00:09:50;;;;;;;12.55;7.75;;;;;;;18.24;100.00;98141.88;4181059;28;20044;-72
2023/06/30 00:11:53;;;;;;;10.02;8.18;;;;;;;18.23;100.00;98145.91;4179617;28;20033;-72
2023/06/30 00:13:55;;;;;;;10.40;7.93;;;;;;;18.20;100.00;98143.97;4178383;28;20114;-73
2023/06/30 00:15:55;;;;;;;12.13;8.27;;;;;;;18.17;100.00;98142.81;4175289;28;20057;-72
2023/06/30 00:17:56;;;;;;;10.35;7.65;;;;;;;18.08;100.00;98141.88;4185580;28;20527;-72
2023/06/30 00:19:59;;;;;;;14.65;7.50;;;;;;;18.05;100.00;98142.75;4190277;28;20055;-72
2023/06/30 00:21:59;;;;;;;;;;;;;;;18.04;100.00;98144.75;4176235;28;20043;-72
2023/06/30 00:24:04;;;;;;;12.07;8.50;;;;;;;18.03;100.00;98137.56;4174823;28;19972;-73
2023/06/30 00:26:04;;;;;;;12.45;8.20;;;;;;;17.97;100.00;98142.13;4188095;28;20053;-73
2023/06/30 00:28:04;;;;;;;13.00;9.55;;;;;;;17.94;100.00;98129.78;4179241;28;20380;-73
2023/06/30 00:30:06;;;;;;;15.43;8.95;;;;;;;17.89;100.00;98130.31;4175263;28;20072;-72
2023/06/30 00:32:06;;;;;;;14.05;8.55;;;;;;;17.87;100.00;98129.16;4178346;28;20065;-73
2023/06/30 00:34:06;;;;;;;10.45;8.32;;;;;;;17.87;100.00;98121.56;4174182;28;20465;-72
2023/06/30 00:36:07;;;;;;;15.85;8.65;;;;;;;17.85;100.00;98124.00;4179715;28;20025;-73
2023/06/30 00:38:07;;;;;;;10.88;8.40;;;;;;;17.78;100.00;98124.16;4181132;28;20023;-73
2023/06/30 00:40:08;;;;;;;10.70;8.60;;;;;;;17.79;100.00;98117.34;4189488;28;20098;-73
2023/06/30 00:42:08;;;;;;;9.43;7.75;;;;;;;17.85;100.00;98120.41;4190732;28;20040;-72
2023/06/30 00:44:08;;;;;;;10.80;7.72;;;;;;;17.90;100.00;98120.69;4175588;28;20086;-73
2023/06/30 00:46:12;;;;;;;10.98;7.90;;;;;;;17.91;100.00;98119.47;4175331;28;20442;-73
2023/06/30 00:48:12;;;;;;;10.50;7.68;;;;;;;17.90;100.00;98119.91;4174633;28;20494;-73
2023/06/30 00:50:13;;;;;;;9.90;7.45;;;;;;;17.89;100.00;98110.72;4179276;28;20046;-73
2023/06/30 00:52:13;;;;;;;8.18;6.78;;;;;;;17.86;100.00;98113.59;4178493;28;20056;-73
2023/06/30 00:54:14;;;;;;;10.25;6.93;;;;;;;17.84;100.00;98107.63;4176238;28;20732;-73
2023/06/30 00:56:14;;;;;;;12.25;7.70;;;;;;;17.81;100.00;98112.09;4184613;28;20037;-73
2023/06/30 00:58:14;;;;;;;11.07;7.38;;;;;;;17.77;100.00;98111.38;4182474;28;20077;-73
2023/06/30 01:00:15;;;;;;;9.75;7.47;;;;;;;17.68;100.00;98103.56;4182979;28;20028;-73
2023/06/30 01:02:24;;;;;;;11.60;7.90;;;;;;;17.57;100.00;98105.81;4179007;28;20563;-73
2023/06/30 01:04:37;;;;;;;11.60;7.78;;;;;;;17.54;100.00;98098.31;4174559;28;20419;-73
2023/06/30 01:06:45;;;;;;;9.75;7.75;;;;;;;17.53;100.00;98098.72;4176735;28;20052;-73
2023/06/30 01:09:00;;;;;;;12.07;8.40;;;;;;;17.39;100.00;98092.25;4190696;28;20431;-73
2023/06/30 01:11:02;;;;;;;11.93;8.05;;;;;;;17.36;100.00;98092.31;4175795;28;20049;-73
2023/06/30 01:13:05;;;;;;;11.55;7.68;;;;;;;17.34;100.00;98089.94;4174080;28;20047;-73
2023/06/30 01:15:07;;;;;;;8.32;6.60;;;;;;;17.34;100.00;98095.53;4177072;28;20033;-73
2023/06/30 01:17:08;;;;;;;11.27;7.13;;;;;;;17.31;100.00;98095.63;4183423;28;20050;-73
2023/06/30 01:19:24;;;;;;;9.88;7.50;;;;;;;17.30;100.00;98089.25;4174606;28;20037;-73
2023/06/30 01:21:28;;;;;;;13.32;8.05;;;;;;;17.29;100.00;98092.44;4174603;28;20045;-73
2023/06/30 01:23:33;;;;;;;14.88;8.50;;;;;;;17.26;100.00;98096.13;4173099;28;20126;-73
2023/06/30 01:25:33;;;;;;;11.43;8.63;;;;;;;17.26;100.00;98085.72;4174324;28;20061;-73
2023/06/30 01:27:36;;;;;;;9.13;7.15;;;;;;;17.26;100.00;98087.72;4176792;28;20045;-73
2023/06/30 01:29:36;;;;;;;10.38;8.02;;;;;;;17.31;100.00;98087.25;4181771;28;20458;-72
2023/06/30 01:31:38;;;;;;;9.85;8.25;;;;;;;17.26;100.00;98082.16;4184355;28;20058;-73
2023/06/30 01:33:39;;;;;;;10.15;7.20;;;;;;;17.31;100.00;98088.03;4173982;28;20388;-73
2023/06/30 01:35:39;;;;;;;10.07;7.38;;;;;;;17.27;100.00;98090.09;4178121;28;20040;-73
2023/06/30 01:37:40;;;;;;;11.50;8.55;;;;;;;17.31;100.00;98090.81;4180725;28;20508;-72
2023/06/30 01:39:40;;;;;;;11.27;7.93;;;;;;;17.35;100.00;98085.94;4179551;28;20044;-72
2023/06/30 01:41:41;;;;;;;10.90;7.60;;;;;;;17.37;100.00;98082.69;4189040;28;20405;-72
2023/06/30 01:43:41;;;;;;;16.15;8.32;;;;;;;17.39;100.00;98085.88;4189279;28;20104;-72
2023/06/30 01:45:42;;;;;;;14.63;8.00;;;;;;;17.35;100.00;98077.53;4175532;28;20128;-72
2023/06/30 01:47:43;;;;;;;9.82;7.65;;;;;;;17.33;100.00;98073.59;4174797;28;20079;-73
2023/06/30 01:49:44;;;;;;;10.60;7.15;;;;;;;17.33;100.00;98087.59;4173994;28;20378;-73
2023/06/30 01:51:44;;;;;;;12.07;8.85;;;;;;;17.20;100.00;98083.88;4174217;28;20045;-73
2023/06/30 01:53:45;;;;;;;10.02;7.75;;;;;;;17.10;100.00;98085.66;4173643;28;20472;-73
2023/06/30 01:55:47;;;;;;;14.10;7.90;;;;;;;17.04;100.00;98074.19;4176635;28;20068;-73
2023/06/30 01:57:47;;;;;;;8.95;6.95;;;;;;;17.00;100.00;98075.50;4189725;28;20504;-73
2023/06/30 01:59:48;;;;;;;11.20;8.32;;;;;;;17.01;100.00;98077.06;4187317;28;20049;-73
2023/06/30 02:01:48;;;;;;;10.73;8.15;;;;;;;17.04;100.00;98079.78;4179417;28;20037;-73
2023/06/30 02:03:50;;;;;;;12.77;8.65;;;;;;;17.02;100.00;98079.44;4188390;28;20074;-72
2023/06/30 02:05:50;;;;;;;18.00;8.63;;;;;;;17.05;100.00;98084.19;4188413;28;20386;-73
2023/06/30 02:07:51;;;;;;;14.40;8.82;;;;;;;17.04;100.00;98074.19;4188189;28;20054;-73
2023/06/30 02:09:51;;;;;;;13.35;7.95;;;;;;;17.05;100.00;98078.59;4188876;28;20106;-73
2023/06/30 02:11:51;;;;;;;15.48;8.82;;;;;;;17.02;100.00;98079.44;4174430;28;20052;-73
2023/06/30 02:13:52;;;;;;;12.15;8.25;;;;;;;17.05;100.00;98089.00;4181146;28;20445;-73
2023/06/30 02:15:52;;;;;;;10.57;7.85;;;;;;;17.04;100.00;98076.22;4183852;28;20057;-72
2023/06/30 02:17:53;;;;;;;14.40;9.15;;;;;;;17.03;100.00;98080.22;4173892;28;20045;-73
2023/06/30 02:19:53;;;;;;;10.60;8.00;;;;;;;17.01;100.00;98083.47;4173769;28;20037;-73
2023/06/30 02:21:54;;;;;;;11.73;7.82;;;;;;;17.06;100.00;98082.19;4173948;28;20095;-73
2023/06/30 02:23:54;;;;;;;13.18;8.45;;;;;;;17.04;100.00;98087.38;4173425;28;20417;-73
2023/06/30 02:25:54;;;;;;;13.52;8.38;;;;;;;17.06;100.00;98087.75;4173242;28;20056;-73
2023/06/30 02:27:54;;;;;;;13.20;8.55;;;;;;;17.05;100.00;98077.81;4173302;28;20041;-73
2023/06/30 02:29:56;;;;;;;15.10;7.75;;;;;;;17.03;100.00;98091.41;4177464;28;20048;-73
2023/06/30 02:31:56;;;;;;;12.82;8.65;;;;;;;17.05;100.00;98100.16;4179394;28;20037;-73
2023/06/30 02:33:57;;;;;;;12.93;8.63;;;;;;;17.02;100.00;98099.00;4185292;28;20507;-72
2023/06/30 02:35:57;;;;;;;13.32;8.75;;;;;;;16.98;100.00;98091.91;4174306;28;20160;-73
2023/06/30 02:37:57;;;;;;;10.52;8.02;;;;;;;16.98;100.00;98095.50;4173666;28;20562;-73
2023/06/30 02:39:58;;;;;;;11.13;8.27;;;;;;;16.93;100.00;98086.81;4176253;28;20033;-73
2023/06/30 02:41:58;;;;;;;12.48;8.93;;;;;;;16.91;100.00;98090.06;4186375;28;20087;-72
2023/06/30 02:43:58;;;;;;;12.07;7.82;;;;;;;16.87;100.00;98089.31;4187584;28;20028;-73
2023/06/30 02:45:59;;;;;;;15.95;8.43;;;;;;;16.83;100.00;98085.81;4175811;28;20126;-73
2023/06/30 02:47:59;;;;;;;10.65;8.40;;;;;;;16.79;100.00;98087.88;4173530;28;20051;-73
2023/06/30 02:49:59;;;;;;;12.48;8.30;;;;;;;16.76;100.00;98081.16;4173799;28;20124;-73
2023/06/30 02:51:59;;;;;;;12.68;7.75;;;;;;;16.72;100.00;98074.88;4173403;28;20132;-72
2023/06/30 02:54:00;;;;;;;9.68;7.30;;;;;;;16.71;100.00;98073.28;4172768;28;20051;-72
2023/06/30 02:56:00;;;;;;;11.95;8.18;;;;;;;16.70;100.00;98082.88;4173884;28;20049;-72
2023/06/30 02:58:01;;;;;;;10.30;7.65;;;;;;;16.68;100.00;98085.28;4172871;28;20040;-73
2023/06/30 03:00:01;;;;;;;13.60;7.80;;;;;;;16.73;100.00;98079.22;4173239;28;20056;-73
2023/06/30 03:02:02;;;;;;;11.00;7.72;;;;;;;16.77;100.00;98070.78;4187269;28;20048;-73
2023/06/30 03:04:04;;;;;;;13.80;7.05;;;;;;;16.77;100.00;98068.75;4184813;28;20067;-72
2023/06/30 03:06:04;;;;;;;11.35;8.52;;;;;;;16.78;100.00;98069.56;4173853;28;20033;-73
2023/06/30 03:08:05;;;;;;;13.80;8.52;;;;;;;16.78;100.00;98069.56;4173394;28;20020;-73
2023/06/30 03:10:06;;;;;;;10.20;6.88;;;;;;;16.73;100.00;98068.06;4173517;28;20025;-72
2023/06/30 03:12:07;;;;;;;10.90;7.40;;;;;;;16.78;100.00;98066.75;4178849;28;20093;-73
2023/06/30 03:14:07;;;;;;;16.50;7.50;;;;;;;16.79;100.00;98071.91;4185031;28;20115;-72
2023/06/30 03:16:08;;;;;;;12.70;8.00;;;;;;;16.78;100.00;98058.38;4187581;28;20061;-73
2023/06/30 03:18:08;;;;;;;12.13;7.32;;;;;;;16.70;100.00;98054.94;4178748;28;20025;-73
2023/06/30 03:20:11;;;;;;;9.38;7.13;;;;;;;16.63;100.00;98048.66;4172934;28;20637;-73
2023/06/30 03:22:12;;;;;;;11.43;7.68;;;;;;;16.55;100.00;98062.00;4174240;28;20091;-73
2023/06/30 03:24:12;;;;;;;15.63;8.27;;;;;;;16.42;100.00;98059.03;4179820;28;20315;-73
2023/06/30 03:26:13;;;;;;;13.30;8.55;;;;;;;16.34;100.00;98054.81;4188586;28;20101;-73
2023/06/30 03:28:14;;;;;;;11.43;7.72;;;;;;;16.33;100.00;98046.88;4173653;28;20037;-73
2023/06/30 03:30:16;;;;;;;13.23;7.63;;;;;;;16.36;100.00;98046.78;4176434;28;20398;-73
2023/06/30 03:32:16;;;;;;;14.43;7.32;;;;;;;16.39;100.00;98040.38;4172342;28;20119;-73
2023/06/30 03:34:16;;;;;;;12.13;7.22;;;;;;;16.38;100.00;98038.75;4174269;28;20064;-73
2023/06/30 03:36:17;;;;;;;10.25;7.70;;;;;;;16.35;100.00;98041.63;4178186;28;20178;-73
2023/06/30 03:38:17;;;;;;;12.63;7.30;;;;;;;16.33;100.00;98036.47;4174659;28;20029;-73
2023/06/30 03:40:17;;;;;;;14.40;7.63;;;;;;;16.32;100.00;98031.34;4182745;28;20032;-73
2023/06/30 03:42:18;;;;;;;14.88;7.90;;;;;;;16.32;100.00;98036.91;4178169;28;20033;-73
2023/06/30 03:44:18;;;;;;;12.43;7.78;;;;;;;16.28;100.00;98032.16;4175509;28;20207;-73
2023/06/30 03:46:18;;;;;;;11.52;7.50;;;;;;;16.30;100.00;98034.53;4184264;28;20024;-72
2023/06/30 03:48:20;;;;;;;17.33;8.65;;;;;;;16.31;100.00;98035.34;4176420;28;20055;-73
2023/06/30 03:50:20;;;;;;;15.77;7.80;;;;;;;16.28;100.00;98029.38;4180466;28;20021;-72
2023/06/30 03:52:21;;;;;;;13.80;8.10;;;;;;;16.29;100.00;98033.75;4178025;28;20587;-73
2023/06/30 03:54:21;;;;;;;13.88;7.50;;;;;;;16.32;100.00;98026.53;4190434;28;20037;-72
2023/06/30 03:56:21;;;;;;;9.27;7.22;;;;;;;16.35;100.00;98033.25;4180506;28;20098;-72
2023/06/30 03:58:22;;;;;;;12.60;7.78;;;;;;;16.38;100.00;98040.75;4173519;28;20477;-73
2023/06/30 04:00:22;;;;;;;12.02;8.60;;;;;;;16.40;100.00;98038.34;4175419;28;20090;-73
2023/06/30 04:02:22;;;;;;;11.02;7.07;;;;;;;16.35;100.00;98039.63;4174957;28;20033;-73
2023/06/30 04:04:22;;;;;;;14.00;8.88;;;;;;;16.30;100.00;98042.91;4174537;28;20052;-73
2023/06/30 04:06:23;;;;;;;14.57;9.27;;;;;;;16.29;100.00;98052.50;4175222;28;20057;-73
2023/06/30 04:08:23;;;;;;;10.70;8.30;;;;;;;16.27;100.00;98047.34;4173635;28;20055;-73
2023/06/30 04:10:23;;;;;;;15.88;8.30;;;;;;;16.19;100.00;98051.47;4174961;28;20679;-73
2023/06/30 04:12:24;;;;;;;12.15;7.70;;;;;;;16.16;100.00;98051.56;4174858;28;20139;-73
2023/06/30 04:14:24;;;;;;;15.10;8.93;;;;;;;16.17;100.00;98053.13;4174887;28;20090;-72
2023/06/30 04:16:24;;;;;;;11.20;7.63;;;;;;;16.16;100.00;98052.34;4173663;28;20478;-73
2023/06/30 04:18:26;;;;;;;14.82;9.07;;;;;;;16.18;100.00;98049.91;4179701;28;20042;-73
2023/06/30 04:20:26;;;;;;;11.40;8.85;;;;;;;16.25;100.00;98049.00;4175305;28;20036;-73
2023/06/30 04:22:26;;;;;;;15.68;10.82;;;;;;;16.25;100.00;98051.78;4175974;28;20055;-73
2023/06/30 04:24:27;;;;;;;13.57;9.77;;;;;;;16.26;100.00;98062.50;4177212;28;20496;-73
2023/06/30 04:26:28;;;;;;;13.32;9.60;;;;;;;16.32;100.00;98059.25;4181672;28;20127;-72
2023/06/30 04:28:28;;;;;;;12.55;9.00;;;;;;;16.34;100.00;98054.81;4183452;28;20407;-73
2023/06/30 04:30:28;;;;;;;13.32;9.38;;;;;;;16.35;100.00;98056.38;4175556;28;20116;-73
2023/06/30 04:32:29;;;;;;;15.82;8.50;;;;;;;16.42;100.00;98052.66;4184483;28;20049;-72
2023/06/30 04:34:29;;;;;;;14.15;8.55;;;;;;;16.47;100.00;98055.78;4172439;28;20499;-72
2023/06/30 04:36:29;;;;;;;15.35;9.40;;;;;;;16.52;100.00;98055.25;4182182;28;20059;-72
2023/06/30 04:38:30;;;;;;;15.40;8.63;;;;;;;16.59;100.00;98057.13;4175075;28;20043;-73
2023/06/30 04:40:30;;;;;;;13.98;10.55;;;;;;;16.57;100.00;98054.78;4172038;28;20037;-72
2023/06/30 04:42:32;;;;;;;12.70;9.20;;;;;;;16.58;100.00;98052.75;4173549;28;20094;-73
2023/06/30 04:44:32;;;;;;;14.23;9.33;;;;;;;16.65;100.00;98051.84;4176942;28;20283;-73
2023/06/30 04:46:32;;;;;;;13.82;9.07;;;;;;;16.64;100.00;98047.47;4173267;28;20050;-72
2023/06/30 04:48:34;;;;;;;11.65;8.73;;;;;;;16.66;100.00;98050.63;4176372;28;20477;-72
2023/06/30 04:50:35;;;;;;;14.45;9.52;;;;;;;16.67;100.00;98047.41;4179118;28;20094;-73
2023/06/30 04:52:35;;;;;;;13.73;9.98;;;;;;;16.71;100.00;98047.34;4176969;28;20041;-73
2023/06/30 04:54:36;;;;;;;12.05;8.90;;;;;;;16.76;100.00;98053.22;4176334;28;20086;-72
2023/06/30 04:56:36;;;;;;;14.40;9.30;;;;;;;16.79;100.00;98041.19;4176514;28;20124;-72
2023/06/30 04:58:36;;;;;;;12.63;8.88;;;;;;;16.85;100.00;98049.84;4182280;28;20076;-72
2023/06/30 05:00:37;;;;;;;21.88;9.95;;;;;;;16.90;100.00;98043.78;4179838;28;20186;-72
2023/06/30 05:02:37;;;;;;;11.88;8.43;;;;;;;16.96;100.00;98044.03;4172764;28;20537;-72
2023/06/30 05:04:37;;;;;;;16.10;9.75;;;;;;;17.01;100.00;98043.53;4118114;28;20084;-73
2023/06/30 05:06:38;;;;;;;12.40;8.32;;;;;;;17.09;100.00;98042.16;4173019;28;20505;-72
2023/06/30 05:08:38;;;;;;;12.77;10.18;;;;;;;17.16;100.00;98041.25;4175480;28;20044;-72
2023/06/30 05:10:38;;;;;;;15.98;9.82;;;;;;;17.22;100.00;98048.69;4179571;28;20277;-73
2023/06/30 05:12:39;;;;;;;13.27;8.90;;;;;;;17.30;100.00;98049.31;4177706;28;20056;-73
2023/06/30 05:14:39;;;;;;;18.50;10.55;;;;;;;17.37;100.00;98043.53;4175076;28;20542;-72
2023/06/30 05:16:39;;;;;;;15.13;9.63;;;;;;;17.42;100.00;98043.03;4179065;28;20231;-72
2023/06/30 05:18:39;;;;;;;15.52;9.88;;;;;;;17.44;100.00;98037.00;4183769;28;20381;-72
2023/06/30 05:20:40;;;;;;;14.18;9.00;;;;;;;17.48;100.00;98037.72;4173713;28;20477;-72
2023/06/30 05:22:40;;;;;;;12.45;8.75;;;;;;;17.52;100.00;98032.81;4172960;28;20469;-73
2023/06/30 05:24:40;;;;;;;13.30;9.45;;;;;;;17.56;100.00;98030.75;4181510;28;20080;-72
2023/06/30 05:26:42;;;;;;;17.42;10.02;;;;;;;17.58;100.00;98037.47;4185192;28;20055;-73
2023/06/30 05:28:42;;;;;;;16.52;10.35;;;;;;;17.59;100.00;98041.84;4172440;28;20083;-73
2023/06/30 05:30:42;;;;;;;15.02;10.50;;;;;;;17.65;100.00;98039.31;4173383;28;20140;-72
2023/06/30 05:32:43;;;;;;;15.07;8.80;;;;;;;17.64;100.00;98035.72;4174230;28;20356;-73
2023/06/30 05:34:43;;;;;;;14.85;9.70;;;;;;;17.70;100.00;98047.19;4172826;28;20104;-73
2023/06/30 05:36:46;;;;;;;14.57;10.27;;;;;;;17.68;100.00;98038.44;4173404;28;20130;-72
2023/06/30 05:38:46;;;;;;;15.32;9.80;;;;;;;17.68;100.00;98030.03;4175965;28;20048;-72
2023/06/30 05:40:47;;;;;;;12.98;9.80;;;;;;;17.77;100.00;98046.25;4188644;28;20419;-73
2023/06/30 05:42:47;;;;;;;14.40;9.60;;;;;;;17.78;100.00;98047.81;4176271;28;20056;-72
2023/06/30 05:44:47;;;;;;;18.17;10.73;;;;;;;17.77;100.00;98037.84;4183426;28;20040;-73
2023/06/30 05:46:48;;;;;;;16.92;10.80;;;;;;;17.76;100.00;98033.47;4178751;28;20102;-72
2023/06/30 05:48:48;;;;;;;15.80;10.13;;;;;;;17.80;100.00;98032.19;4189126;28;20037;-72
2023/06/30 05:50:48;;;;;;;19.52;13.57;;;;;;;17.79;100.00;98033.41;4178057;28;20056;-72
2023/06/30 05:52:49;;;;;;;25.88;16.73;;;;;;;17.86;100.00;98038.03;4173592;28;20053;-73
2023/06/30 05:54:49;;;;;;;23.35;14.48;;;;;;;17.87;100.00;98028.41;4177189;28;20102;-72
2023/06/30 05:56:50;;;;;;;19.50;11.80;;;;;;;17.87;100.00;98050.78;4188829;28;20040;-72
2023/06/30 05:58:50;;;;;;;15.15;11.18;;;;;;;17.86;100.00;98041.59;4189353;28;20033;-73
2023/06/30 06:00:51;;;;;;;16.20;10.65;;;;;;;17.86;100.00;98047.19;4176922;28;20124;-72
2023/06/30 06:02:51;;;;;;;16.95;10.98;;;;;;;17.85;100.00;98045.63;4173078;28;20041;-73
2023/06/30 06:04:52;;;;;;;13.23;10.10;;;;;;;17.91;100.00;98057.88;4174398;28;20397;-73
2023/06/30 06:06:52;;;;;;;15.63;10.88;;;;;;;17.96;100.00;98039.78;4173916;28;20504;-73
2023/06/30 06:08:52;;;;;;;18.25;11.50;;;;;;;18.00;100.00;98042.50;4174032;28;20132;-73
2023/06/30 06:10:52;;;;;;;15.57;11.00;;;;;;;18.07;100.00;98037.50;4180960;28;20459;-73
2023/06/30 06:12:53;;;;;;;14.70;10.38;;;;;;;18.11;100.00;98048.59;4188175;28;20041;-73
2023/06/30 06:14:53;;;;;;;17.58;11.35;;;;;;;18.19;100.00;98041.59;4183748;28;20357;-72
2023/06/30 06:16:53;;;;;;;16.17;11.38;;;;;;;18.16;100.00;98043.25;4173707;28;20037;-72
2023/06/30 06:18:54;;;;;;;17.13;11.48;;;;;;;18.17;100.00;98039.22;4174340;28;20205;-73
2023/06/30 06:20:56;;;;;;;14.70;11.13;;;;;;;18.24;100.00;98039.06;4173535;28;20528;-73
2023/06/30 06:22:56;;;;;;;14.85;10.88;;;;;;;18.28;100.00;98041.75;4173124;28;20064;-73
2023/06/30 06:24:56;;;;;;;14.93;10.70;;;;;;;18.40;100.00;98043.06;4173960;28;20037;-73
2023/06/30 06:26:56;;;;;;;16.73;11.18;;;;;;;18.43;100.00;98048.53;4173912;28;20544;-73
2023/06/30 06:28:57;;;;;;;17.70;12.15;;;;;;;18.48;100.00;98044.44;4177919;28;20376;-72
2023/06/30 06:30:57;;;;;;;18.38;12.95;;;;;;;18.53;100.00;98047.50;4176738;28;20435;-72
2023/06/30 06:32:57;;;;;;;17.80;10.93;;;;;;;18.53;100.00;98047.50;4173182;28;20037;-72
2023/06/30 06:34:58;;;;;;;23.30;11.48;;;;;;;18.64;100.00;98049.22;4173441;28;20402;-72
2023/06/30 06:36:58;;;;;;;16.23;12.10;;;;;;;18.72;100.00;98045.00;4173523;28;20076;-73
2023/06/30 06:38:58;;;;;;;14.80;10.57;;;;;;;18.79;100.00;98039.22;4174025;28;20152;-73
2023/06/30 06:40:59;;;;;;;17.33;11.05;;;;;;;18.89;100.00;98038.09;4173529;28;20349;-73
2023/06/30 06:42:59;;;;;;;15.45;10.98;;;;;;;18.98;100.00;98037.47;4173105;28;20080;-73
2023/06/30 06:44:59;;;;;;;17.42;12.05;;;;;;;18.95;100.00;98050.34;4174340;28;20045;-72
2023/06/30 06:47:37;;;;;;;16.30;11.30;;;;;;;18.99;100.00;98053.81;4173393;28;20390;-73
2023/06/30 06:49:37;;;;;;;14.57;10.25;;;;;;;19.05;100.00;98045.66;4173695;28;20132;-72
2023/06/30 06:51:38;;;;;;;18.52;12.10;;;;;;;19.14;100.00;98042.19;4173249;28;20069;-72
2023/06/30 06:53:38;;;;;;;17.17;10.93;;;;;;;19.17;100.00;98041.28;4172838;28;20453;-72
2023/06/30 06:55:38;;;;;;;16.10;12.25;;;;;;;19.20;100.00;98041.22;4178100;28;20055;-72
2023/06/30 06:57:39;;;;;;;19.13;13.10;;;;;;;19.19;100.00;98038.81;4188704;28;20048;-72
2023/06/30 06:59:39;;;;;;;25.85;13.68;;;;;;;19.15;100.00;98040.97;4184074;28;20045;-73
2023/06/30 07:01:40;;;;;;;23.08;14.27;;;;;;;19.04;100.00;98046.91;4179517;28;20125;-72
2023/06/30 07:03:40;;;;;;;19.42;13.77;;;;;;;19.14;100.00;98045.00;4184049;28;20067;-72
2023/06/30 07:05:41;;;;;;;23.55;13.57;;;;;;;19.18;100.00;98046.47;4172592;28;20039;-72
2023/06/30 07:07:41;;;;;;;22.73;14.05;;;;;;;19.27;100.00;98045.78;4175689;28;20071;-72
2023/06/30 07:09:41;;;;;;;20.30;13.48;;;;;;;19.29;100.00;98049.75;4188997;28;20156;-72
2023/06/30 07:11:41;;;;;;;20.00;13.75;;;;;;;19.30;100.00;98044.91;4187125;28;20156;-72
2023/06/30 07:13:42;;;;;;;22.63;14.52;;;;;;;19.38;100.00;98048.28;4188001;28;20136;-72
2023/06/30 07:15:42;;;;;;;21.25;14.00;;;;;;;19.47;100.00;98049.19;4173529;28;20041;-72
2023/06/30 07:17:42;;;;;;;22.05;14.65;;;;;;;19.47;100.00;98048.41;4185554;28;20128;-73
2023/06/30 07:19:43;;;;;;;21.55;14.07;;;;;;;19.51;100.00;98041.44;4172624;28;20041;-72
2023/06/30 07:21:43;;;;;;;17.88;13.77;;;;;;;19.62;100.00;98043.97;4172878;28;20558;-72
2023/06/30 07:23:44;;;;;;;24.45;14.27;;;;;;;19.70;100.00;98039.69;4181528;28;20045;-72
2023/06/30 07:25:45;;;;;;;22.58;14.15;;;;;;;19.65;100.00;98037.44;4187076;28;20059;-72
2023/06/30 07:27:52;;;;;;;21.67;15.70;;;;;;;19.68;100.00;98038.56;4172967;28;20392;-72
2023/06/30 07:29:52;;;;;;;20.92;14.18;;;;;;;19.73;100.00;98032.38;4173982;28;20045;-73
2023/06/30 07:31:53;;;;;;;20.90;14.23;;;;;;;19.78;100.00;98034.63;4187685;28;20727;-73
2023/06/30 07:33:53;;;;;;;20.58;14.38;;;;;;;19.79;100.00;98034.19;4185672;28;20040;-73
2023/06/30 07:35:53;;;;;;;23.98;15.40;;;;;;;19.80;100.00;98037.78;4173009;28;20884;-73
2023/06/30 07:37:54;;;;;;;22.98;14.85;;;;;;;19.96;100.00;98032.03;4172915;28;20068;-72
2023/06/30 07:39:55;;;;;;;24.77;14.25;;;;;;;20.07;100.00;98029.63;4187258;28;20428;-73
2023/06/30 07:41:55;;;;;;;21.30;14.88;;;;;;;20.21;100.00;98028.38;4189201;28;20488;-72
2023/06/30 07:43:55;;;;;;;25.67;15.80;;;;;;;20.28;100.00;98021.72;4186733;28;20083;-72
2023/06/30 07:45:56;;;;;;;25.10;14.75;;;;;;;20.32;100.00;98017.53;4180405;28;20044;-72
2023/06/30 07:47:56;;;;;;;25.70;16.20;;;;;;;20.37;100.00;98022.59;4184981;28;20116;-73
2023/06/30 07:49:56;;;;;;;25.80;15.90;;;;;;;20.47;100.00;98020.66;4180858;28;20033;-72
2023/06/30 07:51:57;;;;;;;21.92;15.23;;;;;;;20.72;100.00;98037.41;4172876;28;20415;-72
2023/06/30 07:53:57;;;;;;;23.25;15.18;;;;;;;20.76;100.00;98034.47;4171978;28;20140;-72
2023/06/30 07:55:57;;;;;;;25.00;16.27;;;;;;;20.73;100.00;98041.00;4173277;28;20033;-72
2023/06/30 07:57:58;;;;;;;21.98;14.93;;;;;;;20.70;100.00;98041.94;4172801;28;20353;-72
2023/06/30 07:59:59;;;;;;;23.15;16.08;;;;;;;20.57;100.00;98032.75;4172833;28;20040;-72
2023/06/30 08:01:59;;;;;;;25.60;15.90;;;;;;;20.60;100.00;98045.88;4172807;28;20053;-72
2023/06/30 08:03:59;;;;;;;24.15;16.10;;;;;;;20.59;100.00;98041.50;4171710;28;20060;-72
2023/06/30 08:06:00;;;;;;;24.05;15.93;;;;;;;20.45;100.00;98046.41;4172955;28;20050;-72
2023/06/30 08:08:00;;;;;;;26.15;16.02;;;;;;;20.45;100.00;98037.22;4172198;28;20594;-72
2023/06/30 08:10:01;;;;;;;27.75;17.25;;;;;;;20.45;100.00;98040.78;4172701;28;20033;-72
2023/06/30 08:12:01;;;;;;;22.48;15.45;;;;;;;20.50;100.00;98045.03;4172804;28;20049;-72
2023/06/30 08:14:02;;;;;;;26.27;16.65;;;;;;;20.30;100.00;98048.13;4171817;28;20357;-72
2023/06/30 08:16:02;;;;;;;23.13;14.70;;;;;;;20.29;100.00;98054.19;4172627;28;20033;-72
2023/06/30 08:18:03;;;;;;;22.00;14.80;;;;;;;20.19;100.00;98059.72;4173707;28;20476;-72
2023/06/30 08:20:03;;;;;;;26.38;16.27;;;;;;;20.14;100.00;98051.88;4172725;28;20491;-72
2023/06/30 08:22:04;;;;;;;24.55;15.57;;;;;;;20.01;100.00;98059.50;4172670;28;20250;-72
2023/06/30 08:24:05;;;;;;;25.65;15.73;;;;;;;20.04;100.00;98055.81;4171835;28;20387;-72
2023/06/30 08:26:05;;;;;;;25.95;16.00;;;;;;;20.06;100.00;98058.16;4181071;28;20039;-72
2023/06/30 08:28:05;;;;;;;24.75;16.42;;;;;;;20.03;100.00;98054.25;4190089;28;20024;-72
2023/06/30 08:30:06;;;;;;;34.28;21.85;;;;;;;19.86;100.00;98055.63;4190605;28;20037;-72
2023/06/30 08:32:07;;;;;;;28.45;17.08;;;;;;;19.87;100.00;98057.19;4177034;28;20428;-72
2023/06/30 08:34:09;;;;;;;26.27;15.77;;;;;;;19.85;100.00;98049.19;4175188;28;20342;-72
2023/06/30 08:36:10;;;;;;;28.75;17.77;;;;;;;19.72;100.00;98044.84;4175519;28;20465;-72
2023/06/30 08:38:10;;;;;;;28.20;17.73;;;;;;;19.53;100.00;98041.78;4175658;28;20025;-72
2023/06/30 08:40:11;;;;;;;25.83;16.85;;;;;;;19.59;100.00;98042.81;4175719;28;20040;-72
2023/06/30 08:42:14;;;;;;;28.48;17.65;;;;;;;19.55;100.00;98050.53;4187706;28;20407;-72
2023/06/30 08:44:17;;;;;;;29.25;18.38;;;;;;;19.57;100.00;98045.28;4189103;28;20064;-72
2023/06/30 08:46:22;;;;;;;27.00;16.85;;;;;;;19.71;100.00;98037.66;4180527;28;20029;-72
2023/06/30 08:48:23;;;;;;;27.63;17.52;;;;;;;19.69;100.00;98054.16;4175183;28;20044;-72
2023/06/30 08:50:24;;;;;;;28.55;17.48;;;;;;;19.86;100.00;98052.81;4175690;28;20037;-72
2023/06/30 08:52:25;;;;;;;29.85;18.45;;;;;;;19.71;100.00;98041.25;4174719;28;20453;-72
2023/06/30 08:54:30;;;;;;;25.58;17.75;;;;;;;19.88;100.00;98045.50;4174955;28;20235;-72
2023/06/30 08:56:32;;;;;;;27.45;18.45;;;;;;;19.88;100.00;98033.50;4175278;28;20056;-74
2023/06/30 08:58:33;;;;;;;29.83;17.95;;;;;;;19.84;100.00;98042.00;4186748;28;20094;-72
2023/06/30 09:00:33;;;;;;;29.67;19.15;;;;;;;19.99;100.00;98044.38;4189575;28;20473;-74
2023/06/30 09:02:36;;;;;;;28.73;19.30;;;;;;;20.08;100.00;98036.81;4190297;28;20093;-74
2023/06/30 09:04:37;;;;;;;25.45;17.20;;;;;;;19.98;100.00;98040.78;4188888;28;20049;-73
2023/06/30 09:06:44;;;;;;;23.70;16.75;;;;;;;19.99;100.00;98050.75;4185520;28;20045;-73
2023/06/30 09:08:51;;;;;;;27.85;18.65;;;;;;;19.78;100.00;98041.03;4175634;28;20041;-73
2023/06/30 09:10:54;;;;;;;28.48;17.80;;;;;;;19.78;100.00;98046.66;4175325;28;20049;-73
2023/06/30 09:12:55;;;;;;;29.90;18.98;;;;;;;19.59;100.00;98045.63;4174565;28;20055;-73
2023/06/30 09:14:59;;;;;;;34.03;18.45;;;;;;;19.60;100.00;98050.00;4181722;28;20037;-73